createdAt,value
2023-12-10T00:02:01.774Z,74.00
2023-12-10T00:07:08.210Z,67.30
2023-12-10T00:12:14.252Z,71.10
2023-12-10T00:17:20.668Z,64.40
2023-12-10T00:22:27.544Z,64.50
2023-12-10T00:27:34.013Z,70.90
2023-12-10T00:32:39.933Z,82.90
2023-12-10T00:37:45.862Z,88.60
2023-12-10T00:42:52.544Z,80.50
2023-12-10T00:47:58.832Z,67.20
2023-12-10T00:53:06.494Z,68.60
2023-12-10T00:58:12.948Z,79.00
2023-12-10T01:03:19.726Z,77.40
2023-12-10T01:08:25.707Z,69.80
2023-12-10T01:13:31.668Z,59.40
2023-12-10T01:18:38.978Z,63.90
2023-12-10T01:23:45.059Z,57.30
2023-12-10T01:28:51.448Z,62.20
2023-12-10T01:33:58.334Z,62.20
2023-12-10T01:44:09.250Z,55.70
2023-12-10T01:49:15.934Z,64.90
2023-12-10T01:54:25.993Z,71.00
2023-12-10T01:59:32.570Z,66.40
2023-12-10T02:04:38.694Z,66.70
2023-12-10T02:09:44.745Z,73.40
2023-12-10T02:14:50.645Z,62.60
2023-12-10T02:19:56.629Z,63.40
2023-12-10T02:25:07.798Z,61.60
2023-12-10T02:30:16.877Z,60.40
2023-12-10T02:35:23.150Z,54.50
2023-12-10T02:40:29.143Z,65.00
2023-12-10T02:45:35.245Z,64.20
2023-12-10T02:50:41.287Z,63.00
2023-12-10T02:55:47.588Z,56.20
2023-12-10T03:00:53.722Z,57.50
2023-12-10T03:06:00.419Z,60.80
2023-12-10T03:11:06.852Z,61.40
2023-12-10T03:16:13.047Z,67.70
2023-12-10T03:21:19.015Z,70.20
2023-12-10T03:26:24.962Z,63.30
2023-12-10T03:31:30.904Z,61.10
2023-12-10T03:36:36.857Z,66.10
2023-12-10T03:41:42.934Z,62.20
2023-12-10T03:46:48.883Z,60.40
2023-12-10T03:51:54.920Z,60.60
2023-12-10T03:57:01.009Z,47.00
2023-12-10T04:02:07.278Z,57.00
2023-12-10T04:07:13.654Z,55.60
2023-12-10T04:12:19.588Z,55.50
2023-12-10T04:17:27.042Z,50.20
2023-12-10T04:22:33.004Z,51.60
2023-12-10T04:27:38.995Z,54.30
2023-12-10T04:32:45.043Z,47.90
2023-12-10T04:37:51.106Z,49.70
2023-12-10T04:42:57.133Z,48.30
2023-12-10T04:48:03.272Z,57.50
2023-12-10T04:53:09.352Z,62.60
2023-12-10T04:58:15.987Z,54.90
2023-12-10T05:03:22.310Z,58.30
2023-12-10T05:08:28.390Z,47.10
2023-12-10T05:13:34.858Z,55.50
2023-12-10T05:18:40.967Z,51.60
2023-12-10T05:23:47.067Z,54.10
2023-12-10T05:28:53.025Z,55.30
2023-12-10T05:33:59.105Z,61.30
2023-12-10T05:39:05.567Z,65.10
2023-12-10T05:44:11.510Z,65.80
2023-12-10T05:49:17.541Z,59.70
2023-12-10T05:54:23.890Z,60.30
2023-12-10T05:59:30.162Z,107.20
2023-12-10T06:04:36.177Z,101.50
2023-12-10T06:09:42.335Z,97.80
2023-12-10T06:14:48.313Z,161.90
2023-12-10T06:19:54.590Z,159.40
2023-12-10T06:25:00.636Z,130.60
2023-12-10T06:30:09.988Z,86.30
2023-12-10T06:35:16.130Z,71.50
2023-12-10T06:40:22.066Z,100.70
2023-12-10T06:45:28.292Z,71.10
2023-12-10T06:50:34.269Z,58.50
2023-12-10T06:55:40.819Z,65.60
2023-12-10T07:00:46.889Z,59.20
2023-12-10T07:05:54.140Z,60.90
2023-12-10T07:11:01.013Z,69.70
2023-12-10T07:16:07.711Z,58.90
2023-12-10T07:21:14.670Z,61.00
2023-12-10T07:31:31.329Z,46.30
2023-12-10T07:36:40.320Z,51.60
2023-12-10T07:41:46.702Z,51.80
2023-12-10T07:46:52.807Z,48.20
2023-12-10T07:51:58.833Z,134.10
2023-12-10T07:57:05.071Z,237.90
2023-12-10T08:02:11.095Z,133.30
2023-12-10T08:07:17.285Z,99.90
2023-12-10T08:12:23.451Z,71.10
2023-12-10T08:17:29.393Z,59.70
2023-12-10T08:22:35.527Z,49.00
2023-12-10T08:27:41.681Z,53.50
2023-12-10T08:32:47.659Z,52.80
2023-12-10T08:37:53.577Z,56.40
2023-12-10T08:42:59.545Z,52.00
2023-12-10T08:48:06.176Z,36.30
2023-12-10T08:53:12.114Z,37.00
2023-12-10T08:58:19.456Z,30.90
2023-12-10T09:03:25.516Z,28.40
2023-12-10T09:08:31.662Z,32.40
2023-12-10T09:13:38.115Z,26.70
2023-12-10T09:18:45.020Z,26.90
2023-12-10T09:23:51.427Z,25.60
2023-12-10T09:28:57.428Z,24.70
2023-12-10T09:34:03.528Z,20.50
2023-12-10T09:39:10.206Z,27.50
2023-12-10T09:44:16.192Z,20.50
2023-12-10T09:49:24.579Z,18.90
2023-12-10T09:54:31.112Z,18.50
2023-12-10T09:59:37.419Z,22.50
2023-12-10T10:04:44.832Z,21.40
2023-12-10T10:09:52.608Z,18.30
2023-12-10T10:14:59.844Z,21.00
2023-12-10T10:20:06.869Z,21.50
2023-12-10T10:25:14.216Z,22.00
2023-12-10T10:30:20.517Z,16.20
2023-12-10T10:35:26.574Z,19.40
2023-12-10T10:40:33.056Z,21.70
2023-12-10T10:45:47.163Z,19.60
2023-12-10T10:50:55.529Z,20.50
2023-12-10T10:56:02.430Z,18.30
2023-12-10T11:01:28.775Z,20.50
2023-12-10T11:06:37.127Z,19.10
2023-12-10T11:11:43.295Z,22.40
2023-12-10T11:16:52.738Z,17.50
2023-12-10T11:21:58.748Z,15.90
2023-12-10T11:27:04.923Z,15.30
2023-12-10T11:32:11.427Z,16.80
2023-12-10T11:37:17.400Z,14.80
2023-12-10T11:42:23.369Z,18.80
2023-12-10T11:47:30.268Z,16.20
2023-12-10T11:52:37.124Z,14.50
2023-12-10T11:57:47.053Z,17.30
2023-12-10T12:02:54.274Z,14.10
2023-12-10T12:08:02.011Z,16.10
2023-12-10T12:13:08.919Z,15.80
2023-12-10T12:18:15.207Z,14.00
2023-12-10T12:23:21.142Z,13.50
2023-12-10T12:28:27.378Z,13.30
2023-12-10T12:33:33.617Z,11.80
2023-12-10T12:38:39.613Z,12.00
2023-12-10T12:43:45.560Z,10.40
2023-12-10T12:48:51.753Z,16.30
2023-12-10T12:54:11.884Z,13.60
2023-12-10T12:59:20.085Z,12.20
2023-12-10T13:04:26.271Z,13.60
2023-12-10T13:09:32.541Z,15.10
2023-12-10T13:14:39.002Z,15.50
2023-12-10T13:19:45.343Z,18.30
2023-12-10T13:24:51.382Z,16.30
2023-12-10T13:29:57.579Z,19.60
2023-12-10T13:35:03.826Z,17.70
2023-12-10T13:40:13.045Z,25.00
2023-12-10T13:45:19.001Z,18.10
2023-12-10T13:50:25.507Z,19.30
2023-12-10T13:55:31.906Z,21.90
2023-12-10T14:00:37.949Z,20.70
2023-12-10T14:05:44.577Z,19.60
2023-12-10T14:10:50.616Z,24.40
2023-12-10T14:15:57.343Z,22.90
2023-12-10T14:26:07.859Z,19.20
2023-12-10T14:31:13.780Z,27.60
2023-12-10T14:36:19.776Z,25.00
2023-12-10T14:41:25.881Z,19.20
2023-12-10T14:46:33.416Z,24.10
2023-12-10T14:51:39.487Z,28.70
2023-12-10T14:56:47.604Z,32.00
2023-12-10T15:02:01.842Z,30.60
2023-12-10T15:07:15.335Z,24.80
2023-12-10T15:12:21.271Z,25.50
2023-12-10T15:17:27.496Z,33.70
2023-12-10T15:22:33.714Z,31.40
2023-12-10T15:27:39.872Z,29.70
2023-12-10T15:32:46.739Z,36.60
2023-12-10T15:37:52.925Z,30.40
2023-12-10T15:42:58.894Z,29.80
2023-12-10T15:48:05.142Z,24.80
2023-12-10T15:53:11.245Z,23.90
2023-12-10T15:58:17.873Z,22.70
2023-12-10T16:08:30.670Z,21.50
2023-12-10T16:13:36.592Z,24.80
2023-12-10T16:18:45.651Z,29.20
2023-12-10T16:23:53.051Z,32.30
2023-12-10T16:28:59.952Z,29.50
2023-12-10T16:34:05.932Z,30.90
2023-12-10T16:39:12.252Z,27.30
2023-12-10T16:44:18.109Z,27.10
2023-12-10T16:49:24.166Z,28.90
2023-12-10T16:54:30.313Z,31.20
2023-12-10T16:59:36.826Z,30.20
2023-12-10T17:04:42.947Z,30.90
2023-12-10T17:09:49.213Z,24.60
2023-12-10T17:14:55.372Z,31.10
2023-12-10T17:20:01.712Z,32.90
2023-12-10T17:25:10.731Z,30.60
2023-12-10T17:30:18.253Z,31.30
2023-12-10T17:35:24.215Z,30.60
2023-12-10T17:40:30.380Z,31.50
2023-12-10T17:45:36.470Z,35.60
2023-12-10T17:50:42.506Z,30.50
2023-12-10T17:55:48.646Z,26.10
2023-12-10T18:00:55.455Z,32.40
2023-12-10T18:06:01.665Z,27.70
2023-12-10T18:11:07.870Z,25.90
2023-12-10T18:16:23.106Z,22.20
2023-12-10T18:21:29.102Z,21.30
2023-12-10T18:26:35.025Z,24.80
2023-12-10T18:31:40.880Z,20.70
2023-12-10T18:36:46.823Z,18.50
2023-12-10T18:41:52.740Z,20.90
2023-12-10T18:46:58.641Z,19.70
2023-12-10T18:52:08.203Z,19.20
2023-12-10T18:57:14.207Z,21.20
2023-12-10T19:02:20.730Z,19.10
2023-12-10T19:07:26.814Z,19.10
2023-12-10T19:12:32.958Z,19.40
2023-12-10T19:17:39.697Z,21.00
2023-12-10T19:22:45.679Z,26.10
2023-12-10T19:27:51.727Z,20.60
2023-12-10T19:32:58.567Z,18.10
2023-12-10T19:38:04.564Z,21.40
2023-12-10T19:43:10.569Z,21.30
2023-12-10T19:48:16.963Z,22.30
2023-12-10T19:53:23.016Z,16.30
2023-12-10T19:58:29.595Z,21.20
2023-12-10T20:03:35.595Z,22.80
2023-12-10T20:08:43.524Z,16.10
2023-12-10T20:13:49.656Z,19.20
2023-12-10T20:18:55.770Z,17.90
2023-12-10T20:24:02.229Z,22.10
2023-12-10T20:29:08.861Z,17.00
2023-12-10T20:34:26.606Z,20.40
2023-12-10T20:39:38.656Z,20.20
2023-12-10T20:44:44.619Z,14.70
2023-12-10T20:49:50.509Z,21.30
2023-12-10T20:54:56.823Z,25.00
2023-12-10T21:00:05.688Z,17.10
2023-12-10T21:05:12.379Z,19.80
2023-12-10T21:10:18.430Z,27.50
2023-12-10T21:15:24.690Z,14.30
2023-12-10T21:20:31.154Z,17.50
2023-12-10T21:25:38.378Z,19.70
2023-12-10T21:30:44.248Z,19.50
2023-12-10T21:35:50.188Z,19.00
2023-12-10T21:40:56.073Z,19.30
2023-12-10T21:46:02.055Z,17.90
2023-12-10T21:51:09.654Z,13.30
2023-12-10T21:56:16.215Z,12.60
2023-12-10T22:06:28.101Z,12.10
2023-12-10T22:11:34.293Z,13.60
2023-12-10T22:16:40.391Z,13.50
2023-12-10T22:21:46.610Z,16.80
2023-12-10T22:26:52.506Z,13.30
2023-12-10T22:31:58.369Z,14.50
2023-12-10T22:37:04.459Z,11.40
2023-12-10T22:42:10.874Z,13.50
2023-12-10T22:47:17.365Z,25.30
2023-12-10T22:57:28.608Z,13.00
2023-12-10T23:02:34.697Z,15.20
2023-12-10T23:07:40.685Z,15.30
2023-12-10T23:12:46.686Z,13.40
2023-12-10T23:17:52.595Z,11.40
2023-12-10T23:22:58.466Z,14.30
2023-12-10T23:28:04.424Z,14.40
2023-12-10T23:33:10.417Z,12.70
2023-12-10T23:38:16.983Z,13.20
2023-12-10T23:48:27.170Z,13.70
2023-12-10T23:53:33.310Z,11.50
2023-12-10T23:58:40.808Z,11.90
